Huvudsida
METAR-TAF:

METAR-TAF

Flygplatser :

Mehrabads flygplats

Teheran, Iran

latitud: 35-41N, longitud: 051-21E, höjd: 1204 m

Aktuellt väderrapport

Denna rapport gjordes för 27 minuter sedan, klockan 01:30 UTC
Vind 4 kt från nordväst
Temperatur 22°C
Fuktighet 33%
Tryck 1021 hPa
Sikt 10 km eller mer
Inga moln under 1 500 m eller inga cumulonimbus

METAR: OIII 230130Z 31004KT CAVOK 22/05 Q1020 A3014

Tid: 05:27 (01:57 UTC)

Väderprognos

Denna rapport gjordes för 2 timmar och 57 minuter sedan, klockan 23:00 UTC
Prognos gäller från 23 kl. 00 UTC till 24 kl. 06 UTC
Vind 6 kt från ost/nordost
Sikt: 8000 m
Temporärt
från 23 kl. 05 UTC till 23 kl. 11 UTC
Vind 10 kt från syd/sydost
Temporärt
från 23 kl. 11 UTC till 23 kl. 14 UTC
Få moln på en höjd av 3500 ft, Högtornande cumulus.
Spridda moln på en höjd av 10000 ft

TAF: OIII 222300Z 2300/2406 07006KT 8000 NSC TEMPO 2305/2311 15010KT TEMPO 2311/2314 FEW035TCU SCT100

Aktuella väderrapporter och prognoser från 4000 flygplatser (METAR- och TAF-rapporter).

De tillgängliga stationerna syns som gula och röda prickar på kartan.

För musen över prickarna för att se namnen på stationerna.

Klicka sedan för att få väderrapporter och prognoser.

För att ändra kartan: Klicka på de gröna knapparna med ett svart kors på för att zooma in; den gröna knappen med ett streck på för att zooma ut; eller på de gröna pilarna för angränsande kartor.


METAR-TAF: